Aeroporto :
LOGIN :

Iscrizione | Disclaimer

   EN    FR    IT 

 










Sommario :    VFR   VFR Marginale   IFR   IFR Intensivo   IFR Molto Intensivo
Visibilità : 
Base nubi : 
>= 8 km
>= 3000ft
5 / 8 km
1000 / 3000 ft
1500m / 5 km
500 / 1000 ft
800 / 1500m
200 / 500 ft
< 800m
< 200 ft
Simboli :   Temporali  Nebbia  Neve Forte  Precipitazioni Forti  Vento > 20 kt
SIGMETs :   Varie  Temporali  Ghiacco  Turbolenza  Onda orograficha  Ceneri Vulcaniche






- Altitudine del aeroporto : 870 ft
- Codice IATA : ETZ


LFJL - Metz Nancy Lorraine

ULTIMO METAR :
  • 072230Z AUTO 21003KT CAVOK 15/08 Q1019 NOSIG

METARs OBSOLETI :
  • 072200Z AUTO 23003KT CAVOK 15/08 Q1019 NOSIG
  • 072130Z AUTO 24002KT CAVOK 17/07 Q1019 NOSIG
  • 072100Z AUTO 26002KT CAVOK 18/07 Q1019 NOSIG
  • 072030Z AUTO 26001KT CAVOK 18/07 Q1019 NOSIG
  • 072000Z AUTO 31003KT CAVOK 18/07 Q1019 NOSIG

TAF TAF LFJL
Valido dal 07 a 18 ore il 08 a 18 ore UTC


071700Z 0718/0818 VRB03KT CAVOK
BECMG 0807/0809 27012KT



MetMap, La meteo Aeronautica in un colpo d'occhio ! - Copyright ORBIFLY Dicembre 2007 - Disclaimer

ORBIFLY MET'MAP TEAM :

Programmazione e sviluppo : Alexandra Zaïnal
Concezione : Baudouin d'Aumeries
Aiuto per la programmazione : Marc-Olivier Méhu
Supporto tecnico e logistico : Manuel Goepfert
Aiuto per la traduzione : Arnaldo La Scala

Contatto : metmap@orbifly.com




FONTI E CREDITI :

   NOAA